sensor_id;sensor_type;location;lat;lon;timestamp;temperature;humidity
66871;DHT22;53780;44.998;9.926;2023-02-04T00:00:04;7.12;73.67
66871;DHT22;53780;44.998;9.926;2023-02-04T00:03:10;7.08;73.46
66871;DHT22;53780;44.998;9.926;2023-02-04T00:06:14;6.94;73.96
66871;DHT22;53780;44.998;9.926;2023-02-04T00:09:18;6.92;74.56
66871;DHT22;53780;44.998;9.926;2023-02-04T00:12:22;7.02;74.78
66871;DHT22;53780;44.998;9.926;2023-02-04T00:15:26;7.14;75.05
66871;DHT22;53780;44.998;9.926;2023-02-04T00:18:29;7.04;75.50
66871;DHT22;53780;44.998;9.926;2023-02-04T00:21:33;7.12;74.61
66871;DHT22;53780;44.998;9.926;2023-02-04T00:24:37;7.14;74.36
66871;DHT22;53780;44.998;9.926;2023-02-04T00:27:41;7.12;74.31
66871;DHT22;53780;44.998;9.926;2023-02-04T00:30:45;7.09;74.06
66871;DHT22;53780;44.998;9.926;2023-02-04T00:33:49;7.05;74.05
66871;DHT22;53780;44.998;9.926;2023-02-04T00:36:53;6.98;74.06
66871;DHT22;53780;44.998;9.926;2023-02-04T00:39:57;6.97;73.88
66871;DHT22;53780;44.998;9.926;2023-02-04T00:43:00;6.94;73.93
66871;DHT22;53780;44.998;9.926;2023-02-04T00:46:04;6.92;73.64
66871;DHT22;53780;44.998;9.926;2023-02-04T00:49:09;6.94;73.40
66871;DHT22;53780;44.998;9.926;2023-02-04T00:52:13;6.94;73.16
66871;DHT22;53780;44.998;9.926;2023-02-04T00:55:17;6.97;72.63
66871;DHT22;53780;44.998;9.926;2023-02-04T00:58:21;6.97;71.79
66871;DHT22;53780;44.998;9.926;2023-02-04T01:01:25;6.94;71.09
66871;DHT22;53780;44.998;9.926;2023-02-04T01:04:29;6.94;70.62
66871;DHT22;53780;44.998;9.926;2023-02-04T01:07:33;6.91;70.54
66871;DHT22;53780;44.998;9.926;2023-02-04T01:10:37;6.88;70.42
66871;DHT22;53780;44.998;9.926;2023-02-04T01:13:41;6.90;70.32
66871;DHT22;53780;44.998;9.926;2023-02-04T01:16:45;6.95;69.82
66871;DHT22;53780;44.998;9.926;2023-02-04T01:19:49;6.94;69.38
66871;DHT22;53780;44.998;9.926;2023-02-04T01:22:52;6.94;69.44
66871;DHT22;53780;44.998;9.926;2023-02-04T01:25:56;6.97;69.42
66871;DHT22;53780;44.998;9.926;2023-02-04T01:29:00;6.92;69.65
66871;DHT22;53780;44.998;9.926;2023-02-04T01:32:04;6.95;69.94
66871;DHT22;53780;44.998;9.926;2023-02-04T01:35:08;6.94;70.19
66871;DHT22;53780;44.998;9.926;2023-02-04T01:38:11;6.94;70.37
66871;DHT22;53780;44.998;9.926;2023-02-04T01:41:17;6.97;70.44
66871;DHT22;53780;44.998;9.926;2023-02-04T01:44:21;6.98;70.24
66871;DHT22;53780;44.998;9.926;2023-02-04T01:47:25;6.94;69.86
66871;DHT22;53780;44.998;9.926;2023-02-04T01:50:29;6.88;69.80
66871;DHT22;53780;44.998;9.926;2023-02-04T01:53:36;6.88;69.76
66871;DHT22;53780;44.998;9.926;2023-02-04T01:56:44;6.74;70.06
66871;DHT22;53780;44.998;9.926;2023-02-04T01:59:50;6.67;70.69
66871;DHT22;53780;44.998;9.926;2023-02-04T02:02:55;6.74;71.01
66871;DHT22;53780;44.998;9.926;2023-02-04T02:06:00;6.71;71.24
66871;DHT22;53780;44.998;9.926;2023-02-04T02:09:04;6.76;71.38
66871;DHT22;53780;44.998;9.926;2023-02-04T02:12:08;6.57;72.38
66871;DHT22;53780;44.998;9.926;2023-02-04T02:15:13;6.60;72.34
66871;DHT22;53780;44.998;9.926;2023-02-04T02:18:17;6.69;72.06
66871;DHT22;53780;44.998;9.926;2023-02-04T02:21:35;6.76;72.06
66871;DHT22;53780;44.998;9.926;2023-02-04T02:24:40;6.87;72.94
66871;DHT22;53780;44.998;9.926;2023-02-04T02:27:44;6.63;74.31
66871;DHT22;53780;44.998;9.926;2023-02-04T02:30:49;6.73;74.02
66871;DHT22;53780;44.998;9.926;2023-02-04T02:33:54;6.83;73.51
66871;DHT22;53780;44.998;9.926;2023-02-04T02:36:58;6.79;73.33
66871;DHT22;53780;44.998;9.926;2023-02-04T02:40:04;6.69;73.28
66871;DHT22;53780;44.998;9.926;2023-02-04T02:43:15;6.57;73.47
66871;DHT22;53780;44.998;9.926;2023-02-04T02:46:20;6.42;73.59
66871;DHT22;53780;44.998;9.926;2023-02-04T02:49:24;6.40;73.55
66871;DHT22;53780;44.998;9.926;2023-02-04T02:52:28;6.33;73.94
66871;DHT22;53780;44.998;9.926;2023-02-04T02:55:32;6.32;74.19
66871;DHT22;53780;44.998;9.926;2023-02-04T02:58:36;6.36;74.03
66871;DHT22;53780;44.998;9.926;2023-02-04T03:01:40;6.33;73.89
66871;DHT22;53780;44.998;9.926;2023-02-04T03:04:50;6.18;75.19
66871;DHT22;53780;44.998;9.926;2023-02-04T03:07:55;6.14;75.59
66871;DHT22;53780;44.998;9.926;2023-02-04T03:10:58;5.99;76.20
66871;DHT22;53780;44.998;9.926;2023-02-04T03:14:02;6.21;75.75
66871;DHT22;53780;44.998;9.926;2023-02-04T03:17:09;6.16;75.83
66871;DHT22;53780;44.998;9.926;2023-02-04T03:20:14;6.16;75.83
66871;DHT22;53780;44.998;9.926;2023-02-04T03:23:19;6.05;75.83
66871;DHT22;53780;44.998;9.926;2023-02-04T03:26:24;6.02;76.39
66871;DHT22;53780;44.998;9.926;2023-02-04T03:29:29;5.95;76.57
66871;DHT22;53780;44.998;9.926;2023-02-04T03:32:33;6.11;76.22
66871;DHT22;53780;44.998;9.926;2023-02-04T03:35:37;5.97;76.59
66871;DHT22;53780;44.998;9.926;2023-02-04T03:38:41;6.02;76.30
66871;DHT22;53780;44.998;9.926;2023-02-04T03:41:45;6.15;75.84
66871;DHT22;53780;44.998;9.926;2023-02-04T03:44:49;6.22;75.98
66871;DHT22;53780;44.998;9.926;2023-02-04T03:47:53;6.42;75.36
66871;DHT22;53780;44.998;9.926;2023-02-04T03:50:56;6.42;75.39
66871;DHT22;53780;44.998;9.926;2023-02-04T03:54:00;6.35;75.78
66871;DHT22;53780;44.998;9.926;2023-02-04T03:57:04;6.40;75.47
66871;DHT22;53780;44.998;9.926;2023-02-04T04:00:09;6.46;75.46
66871;DHT22;53780;44.998;9.926;2023-02-04T04:03:16;6.64;75.03
66871;DHT22;53780;44.998;9.926;2023-02-04T04:06:20;6.54;75.11
66871;DHT22;53780;44.998;9.926;2023-02-04T04:09:24;6.32;76.00
66871;DHT22;53780;44.998;9.926;2023-02-04T04:12:27;6.47;75.78
66871;DHT22;53780;44.998;9.926;2023-02-04T04:15:31;6.47;75.67
66871;DHT22;53780;44.998;9.926;2023-02-04T04:18:35;6.33;75.46
66871;DHT22;53780;44.998;9.926;2023-02-04T04:21:39;6.36;75.84
66871;DHT22;53780;44.998;9.926;2023-02-04T04:24:42;6.40;75.38
66871;DHT22;53780;44.998;9.926;2023-02-04T04:27:46;6.30;75.89
66871;DHT22;53780;44.998;9.926;2023-02-04T04:30:50;6.49;75.43
66871;DHT22;53780;44.998;9.926;2023-02-04T04:33:53;6.52;75.28
66871;DHT22;53780;44.998;9.926;2023-02-04T04:36:57;6.36;76.01
66871;DHT22;53780;44.998;9.926;2023-02-04T04:40:01;6.40;76.45
66871;DHT22;53780;44.998;9.926;2023-02-04T04:43:05;6.56;75.76
66871;DHT22;53780;44.998;9.926;2023-02-04T04:46:08;6.54;75.53
66871;DHT22;53780;44.998;9.926;2023-02-04T04:49:12;6.39;76.36
66871;DHT22;53780;44.998;9.926;2023-02-04T04:52:16;6.37;76.17
66871;DHT22;53780;44.998;9.926;2023-02-04T04:55:19;6.46;76.02
66871;DHT22;53780;44.998;9.926;2023-02-04T04:58:23;6.52;75.96
66871;DHT22;53780;44.998;9.926;2023-02-04T05:01:28;6.49;75.84
66871;DHT22;53780;44.998;9.926;2023-02-04T05:04:31;6.53;75.69
66871;DHT22;53780;44.998;9.926;2023-02-04T05:07:35;6.43;75.91
66871;DHT22;53780;44.998;9.926;2023-02-04T05:10:39;6.50;75.36
66871;DHT22;53780;44.998;9.926;2023-02-04T05:13:43;6.36;75.57
66871;DHT22;53780;44.998;9.926;2023-02-04T05:16:47;6.43;75.00
66871;DHT22;53780;44.998;9.926;2023-02-04T05:19:51;6.30;75.55
66871;DHT22;53780;44.998;9.926;2023-02-04T05:22:56;6.24;76.00
66871;DHT22;53780;44.998;9.926;2023-02-04T05:25:59;6.09;76.24
66871;DHT22;53780;44.998;9.926;2023-02-04T05:29:03;6.14;76.37
66871;DHT22;53780;44.998;9.926;2023-02-04T05:32:07;6.02;76.51
66871;DHT22;53780;44.998;9.926;2023-02-04T05:35:11;6.12;77.03
66871;DHT22;53780;44.998;9.926;2023-02-04T05:38:14;6.36;75.84
66871;DHT22;53780;44.998;9.926;2023-02-04T05:41:18;6.39;76.03
66871;DHT22;53780;44.998;9.926;2023-02-04T05:44:22;6.37;76.13
66871;DHT22;53780;44.998;9.926;2023-02-04T05:47:26;6.32;76.61
66871;DHT22;53780;44.998;9.926;2023-02-04T05:50:30;6.32;76.47
66871;DHT22;53780;44.998;9.926;2023-02-04T05:53:45;6.39;76.57
66871;DHT22;53780;44.998;9.926;2023-02-04T05:56:49;6.47;76.16
66871;DHT22;53780;44.998;9.926;2023-02-04T05:59:54;6.47;75.93
66871;DHT22;53780;44.998;9.926;2023-02-04T06:02:58;6.62;75.68
66871;DHT22;53780;44.998;9.926;2023-02-04T06:06:01;6.67;75.68
66871;DHT22;53780;44.998;9.926;2023-02-04T06:09:05;6.83;74.96
66871;DHT22;53780;44.998;9.926;2023-02-04T06:12:09;6.83;73.04
66871;DHT22;53780;44.998;9.926;2023-02-04T06:15:13;6.83;72.21
66871;DHT22;53780;44.998;9.926;2023-02-04T06:18:17;6.79;73.57
66871;DHT22;53780;44.998;9.926;2023-02-04T06:21:20;6.77;73.57
66871;DHT22;53780;44.998;9.926;2023-02-04T06:24:24;6.67;74.17
66871;DHT22;53780;44.998;9.926;2023-02-04T06:27:28;6.70;74.59
66871;DHT22;53780;44.998;9.926;2023-02-04T06:30:32;6.67;74.33
66871;DHT22;53780;44.998;9.926;2023-02-04T06:33:36;6.52;74.72
66871;DHT22;53780;44.998;9.926;2023-02-04T06:36:40;6.21;75.72
66871;DHT22;53780;44.998;9.926;2023-02-04T06:39:44;6.32;75.11
66871;DHT22;53780;44.998;9.926;2023-02-04T06:42:48;6.40;74.52
66871;DHT22;53780;44.998;9.926;2023-02-04T06:45:51;6.33;74.72
66871;DHT22;53780;44.998;9.926;2023-02-04T06:48:55;6.39;74.71
66871;DHT22;53780;44.998;9.926;2023-02-04T06:51:59;6.35;74.58
66871;DHT22;53780;44.998;9.926;2023-02-04T06:55:03;6.40;75.01
66871;DHT22;53780;44.998;9.926;2023-02-04T06:58:07;6.37;76.12
66871;DHT22;53780;44.998;9.926;2023-02-04T07:01:12;6.52;75.52
66871;DHT22;53780;44.998;9.926;2023-02-04T07:04:16;6.73;74.40
66871;DHT22;53780;44.998;9.926;2023-02-04T07:07:19;6.85;73.78
66871;DHT22;53780;44.998;9.926;2023-02-04T07:10:23;7.01;73.33
66871;DHT22;53780;44.998;9.926;2023-02-04T07:13:27;7.11;72.65
66871;DHT22;53780;44.998;9.926;2023-02-04T07:16:31;7.01;72.96
66871;DHT22;53780;44.998;9.926;2023-02-04T07:19:34;7.07;72.64
66871;DHT22;53780;44.998;9.926;2023-02-04T07:22:38;7.07;72.38
66871;DHT22;53780;44.998;9.926;2023-02-04T07:25:42;7.14;72.45
66871;DHT22;53780;44.998;9.926;2023-02-04T07:28:47;7.12;72.22
66871;DHT22;53780;44.998;9.926;2023-02-04T07:31:52;7.02;73.03
66871;DHT22;53780;44.998;9.926;2023-02-04T07:34:56;7.01;73.21
66871;DHT22;53780;44.998;9.926;2023-02-04T07:38:00;7.09;72.89
66871;DHT22;53780;44.998;9.926;2023-02-04T07:41:04;6.98;73.22
66871;DHT22;53780;44.998;9.926;2023-02-04T07:44:07;6.90;73.36
66871;DHT22;53780;44.998;9.926;2023-02-04T07:47:11;6.84;73.90
66871;DHT22;53780;44.998;9.926;2023-02-04T07:50:15;7.00;73.11
66871;DHT22;53780;44.998;9.926;2023-02-04T07:53:19;6.85;73.30
66871;DHT22;53780;44.998;9.926;2023-02-04T07:56:22;6.87;73.60
66871;DHT22;53780;44.998;9.926;2023-02-04T07:59:26;7.00;73.35
66871;DHT22;53780;44.998;9.926;2023-02-04T08:02:30;7.14;72.50
66871;DHT22;53780;44.998;9.926;2023-02-04T08:05:34;7.23;72.50
66871;DHT22;53780;44.998;9.926;2023-02-04T08:08:37;7.15;72.33
66871;DHT22;53780;44.998;9.926;2023-02-04T08:11:41;7.21;72.13
66871;DHT22;53780;44.998;9.926;2023-02-04T08:14:45;7.28;71.99
66871;DHT22;53780;44.998;9.926;2023-02-04T08:17:49;7.49;71.04
66871;DHT22;53780;44.998;9.926;2023-02-04T08:20:53;7.46;71.28
66871;DHT22;53780;44.998;9.926;2023-02-04T08:23:57;7.63;71.24
66871;DHT22;53780;44.998;9.926;2023-02-04T08:27:01;7.87;71.52
66871;DHT22;53780;44.998;9.926;2023-02-04T08:30:05;8.48;70.39
66871;DHT22;53780;44.998;9.926;2023-02-04T08:33:09;9.39;67.78
66871;DHT22;53780;44.998;9.926;2023-02-04T08:36:13;10.21;65.32
66871;DHT22;53780;44.998;9.926;2023-02-04T08:39:16;10.97;63.44
66871;DHT22;53780;44.998;9.926;2023-02-04T08:42:20;11.82;60.94
66871;DHT22;53780;44.998;9.926;2023-02-04T08:45:24;12.75;57.72
66871;DHT22;53780;44.998;9.926;2023-02-04T08:48:27;13.26;56.71
66871;DHT22;53780;44.998;9.926;2023-02-04T08:51:32;13.74;55.51
66871;DHT22;53780;44.998;9.926;2023-02-04T08:54:36;14.27;53.96
66871;DHT22;53780;44.998;9.926;2023-02-04T08:57:40;14.69;53.76
66871;DHT22;53780;44.998;9.926;2023-02-04T09:00:45;15.05;52.07
66871;DHT22;53780;44.998;9.926;2023-02-04T09:03:48;15.65;51.11
66871;DHT22;53780;44.998;9.926;2023-02-04T09:06:52;16.15;50.01
66871;DHT22;53780;44.998;9.926;2023-02-04T09:09:56;16.46;48.93
66871;DHT22;53780;44.998;9.926;2023-02-04T09:13:00;16.92;48.03
66871;DHT22;53780;44.998;9.926;2023-02-04T09:16:04;17.15;48.00
66871;DHT22;53780;44.998;9.926;2023-02-04T09:19:08;17.74;47.20
66871;DHT22;53780;44.998;9.926;2023-02-04T09:22:15;18.12;46.03
66871;DHT22;53780;44.998;9.926;2023-02-04T09:25:19;18.35;45.06
66871;DHT22;53780;44.998;9.926;2023-02-04T09:28:23;18.33;45.03
66871;DHT22;53780;44.998;9.926;2023-02-04T09:31:27;18.56;44.40
66871;DHT22;53780;44.998;9.926;2023-02-04T09:34:31;19.00;43.84
66871;DHT22;53780;44.998;9.926;2023-02-04T09:37:35;19.04;43.50
66871;DHT22;53780;44.998;9.926;2023-02-04T09:40:45;19.15;43.99
66871;DHT22;53780;44.998;9.926;2023-02-04T09:43:49;19.08;43.44
66871;DHT22;53780;44.998;9.926;2023-02-04T09:46:58;19.33;43.45
66871;DHT22;53780;44.998;9.926;2023-02-04T09:50:03;19.59;43.36
66871;DHT22;53780;44.998;9.926;2023-02-04T09:53:12;19.42;43.56
66871;DHT22;53780;44.998;9.926;2023-02-04T09:56:17;19.73;42.37
66871;DHT22;53780;44.998;9.926;2023-02-04T09:59:22;19.74;42.12
66871;DHT22;53780;44.998;9.926;2023-02-04T10:02:29;19.71;42.49
66871;DHT22;53780;44.998;9.926;2023-02-04T10:05:33;19.74;42.61
66871;DHT22;53780;44.998;9.926;2023-02-04T10:08:40;19.93;41.96
66871;DHT22;53780;44.998;9.926;2023-02-04T10:11:46;20.25;42.34
66871;DHT22;53780;44.998;9.926;2023-02-04T10:14:51;20.51;41.74
66871;DHT22;53780;44.998;9.926;2023-02-04T10:18:04;20.93;41.53
66871;DHT22;53780;44.998;9.926;2023-02-04T10:21:44;20.89;39.62
66871;DHT22;53780;44.998;9.926;2023-02-04T10:24:49;20.96;40.68
66871;DHT22;53780;44.998;9.926;2023-02-04T10:30:58;21.23;40.30
66871;DHT22;53780;44.998;9.926;2023-02-04T10:34:42;21.44;37.87
66871;DHT22;53780;44.998;9.926;2023-02-04T10:37:46;21.14;39.14
66871;DHT22;53780;44.998;9.926;2023-02-04T10:41:01;21.03;39.09
66871;DHT22;53780;44.998;9.926;2023-02-04T10:44:09;21.00;39.64
66871;DHT22;53780;44.998;9.926;2023-02-04T10:47:22;21.18;39.50
66871;DHT22;53780;44.998;9.926;2023-02-04T10:50:27;21.23;40.06
66871;DHT22;53780;44.998;9.926;2023-02-04T10:53:33;21.15;40.57
66871;DHT22;53780;44.998;9.926;2023-02-04T10:57:13;21.14;40.51
66871;DHT22;53780;44.998;9.926;2023-02-04T11:00:22;21.12;39.70
66871;DHT22;53780;44.998;9.926;2023-02-04T11:03:28;21.01;40.53
66871;DHT22;53780;44.998;9.926;2023-02-04T11:06:35;21.27;40.24
66871;DHT22;53780;44.998;9.926;2023-02-04T11:09:42;21.58;38.56
66871;DHT22;53780;44.998;9.926;2023-02-04T11:19:33;21.32;39.94
66871;DHT22;53780;44.998;9.926;2023-02-04T11:22:43;21.44;40.25
66871;DHT22;53780;44.998;9.926;2023-02-04T11:25:47;21.39;39.23
66871;DHT22;53780;44.998;9.926;2023-02-04T11:32:26;21.20;39.90
66871;DHT22;53780;44.998;9.926;2023-02-04T11:35:30;21.18;40.06
66871;DHT22;53780;44.998;9.926;2023-02-04T11:38:34;21.38;40.35
66871;DHT22;53780;44.998;9.926;2023-02-04T11:41:38;21.54;39.87
66871;DHT22;53780;44.998;9.926;2023-02-04T11:44:51;21.73;40.70
66871;DHT22;53780;44.998;9.926;2023-02-04T11:48:00;21.82;38.72
66871;DHT22;53780;44.998;9.926;2023-02-04T11:51:25;21.86;38.89
66871;DHT22;53780;44.998;9.926;2023-02-04T11:54:31;21.93;39.03
66871;DHT22;53780;44.998;9.926;2023-02-04T11:57:40;21.97;39.48
66871;DHT22;53780;44.998;9.926;2023-02-04T12:00:44;21.92;40.09
66871;DHT22;53780;44.998;9.926;2023-02-04T12:03:55;21.90;39.63
66871;DHT22;53780;44.998;9.926;2023-02-04T12:07:02;21.93;39.25
66871;DHT22;53780;44.998;9.926;2023-02-04T12:13:23;21.90;38.32
66871;DHT22;53780;44.998;9.926;2023-02-04T12:16:27;21.88;38.99
66871;DHT22;53780;44.998;9.926;2023-02-04T12:19:31;21.92;37.75
66871;DHT22;53780;44.998;9.926;2023-02-04T12:22:35;21.89;39.55
66871;DHT22;53780;44.998;9.926;2023-02-04T12:25:38;21.78;38.54
66871;DHT22;53780;44.998;9.926;2023-02-04T12:28:42;21.69;38.54
66871;DHT22;53780;44.998;9.926;2023-02-04T12:31:46;21.58;39.40
66871;DHT22;53780;44.998;9.926;2023-02-04T12:34:50;21.34;39.45
66871;DHT22;53780;44.998;9.926;2023-02-04T12:37:54;21.10;39.64
66871;DHT22;53780;44.998;9.926;2023-02-04T12:40:58;20.87;40.59
66871;DHT22;53780;44.998;9.926;2023-02-04T12:44:01;20.68;41.67
66871;DHT22;53780;44.998;9.926;2023-02-04T12:47:05;20.52;41.55
66871;DHT22;53780;44.998;9.926;2023-02-04T12:50:12;20.35;42.02
66871;DHT22;53780;44.998;9.926;2023-02-04T12:53:16;20.24;42.57
66871;DHT22;53780;44.998;9.926;2023-02-04T12:56:20;20.11;42.20
66871;DHT22;53780;44.998;9.926;2023-02-04T12:59:26;20.03;42.70
66871;DHT22;53780;44.998;9.926;2023-02-04T13:02:30;19.89;43.33
66871;DHT22;53780;44.998;9.926;2023-02-04T13:05:34;19.79;42.79
66871;DHT22;53780;44.998;9.926;2023-02-04T13:08:38;19.67;43.23
66871;DHT22;53780;44.998;9.926;2023-02-04T13:11:42;19.56;42.17
66871;DHT22;53780;44.998;9.926;2023-02-04T13:14:45;19.48;43.19
66871;DHT22;53780;44.998;9.926;2023-02-04T13:17:49;19.35;42.82
66871;DHT22;53780;44.998;9.926;2023-02-04T13:20:53;19.19;43.56
66871;DHT22;53780;44.998;9.926;2023-02-04T13:23:57;19.12;43.73
66871;DHT22;53780;44.998;9.926;2023-02-04T13:27:02;19.04;43.25
66871;DHT22;53780;44.998;9.926;2023-02-04T13:30:07;18.97;43.81
66871;DHT22;53780;44.998;9.926;2023-02-04T13:33:11;18.86;43.78
66871;DHT22;53780;44.998;9.926;2023-02-04T13:36:15;18.80;44.21
66871;DHT22;53780;44.998;9.926;2023-02-04T13:39:18;18.66;43.78
66871;DHT22;53780;44.998;9.926;2023-02-04T13:42:22;18.57;44.60
66871;DHT22;53780;44.998;9.926;2023-02-04T13:45:26;18.50;44.23
66871;DHT22;53780;44.998;9.926;2023-02-04T13:48:30;18.43;44.64
66871;DHT22;53780;44.998;9.926;2023-02-04T13:51:33;18.38;45.05
66871;DHT22;53780;44.998;9.926;2023-02-04T13:54:37;18.29;45.33
66871;DHT22;53780;44.998;9.926;2023-02-04T13:57:41;18.24;45.70
66871;DHT22;53780;44.998;9.926;2023-02-04T14:00:45;18.16;46.47
66871;DHT22;53780;44.998;9.926;2023-02-04T14:03:49;18.09;46.78
66871;DHT22;53780;44.998;9.926;2023-02-04T14:06:53;17.94;47.21
66871;DHT22;53780;44.998;9.926;2023-02-04T14:09:58;17.90;47.05
66871;DHT22;53780;44.998;9.926;2023-02-04T14:13:02;17.83;47.27
66871;DHT22;53780;44.998;9.926;2023-02-04T14:16:06;17.81;47.06
66871;DHT22;53780;44.998;9.926;2023-02-04T14:19:11;17.77;47.35
66871;DHT22;53780;44.998;9.926;2023-02-04T14:22:16;17.77;47.52
66871;DHT22;53780;44.998;9.926;2023-02-04T14:25:21;17.63;47.91
66871;DHT22;53780;44.998;9.926;2023-02-04T14:28:25;17.62;48.06
66871;DHT22;53780;44.998;9.926;2023-02-04T14:31:29;17.51;47.86
66871;DHT22;53780;44.998;9.926;2023-02-04T14:34:32;17.47;48.03
66871;DHT22;53780;44.998;9.926;2023-02-04T14:37:36;17.32;48.12
66871;DHT22;53780;44.998;9.926;2023-02-04T14:40:44;17.30;47.33
66871;DHT22;53780;44.998;9.926;2023-02-04T14:43:48;17.26;46.40
66871;DHT22;53780;44.998;9.926;2023-02-04T14:46:52;17.23;46.15
66871;DHT22;53780;44.998;9.926;2023-02-04T14:49:55;17.26;46.62
66871;DHT22;53780;44.998;9.926;2023-02-04T14:52:59;17.29;47.29
66871;DHT22;53780;44.998;9.926;2023-02-04T14:56:03;17.16;46.71
66871;DHT22;53780;44.998;9.926;2023-02-04T14:59:07;17.15;46.34
66871;DHT22;53780;44.998;9.926;2023-02-04T15:02:11;17.15;46.96
66871;DHT22;53780;44.998;9.926;2023-02-04T15:05:17;17.14;46.65
66871;DHT22;53780;44.998;9.926;2023-02-04T15:08:21;17.15;46.73
66871;DHT22;53780;44.998;9.926;2023-02-04T15:11:25;17.11;46.85
66871;DHT22;53780;44.998;9.926;2023-02-04T15:14:29;17.12;47.05
66871;DHT22;53780;44.998;9.926;2023-02-04T15:17:33;17.04;48.04
66871;DHT22;53780;44.998;9.926;2023-02-04T15:20:36;17.05;48.20
66871;DHT22;53780;44.998;9.926;2023-02-04T15:23:40;17.07;48.00
66871;DHT22;53780;44.998;9.926;2023-02-04T15:26:46;17.07;47.91
66871;DHT22;53780;44.998;9.926;2023-02-04T15:29:51;17.08;47.97
66871;DHT22;53780;44.998;9.926;2023-02-04T15:32:55;17.05;48.87
66871;DHT22;53780;44.998;9.926;2023-02-04T15:35:58;17.01;49.33
66871;DHT22;53780;44.998;9.926;2023-02-04T15:39:02;16.96;49.75
66871;DHT22;53780;44.998;9.926;2023-02-04T15:42:07;16.91;49.23
66871;DHT22;53780;44.998;9.926;2023-02-04T15:45:11;16.88;49.29
66871;DHT22;53780;44.998;9.926;2023-02-04T15:48:15;16.80;49.36
66871;DHT22;53780;44.998;9.926;2023-02-04T15:51:19;16.72;50.36
66871;DHT22;53780;44.998;9.926;2023-02-04T15:54:23;16.65;50.32
66871;DHT22;53780;44.998;9.926;2023-02-04T15:57:28;16.60;50.05
66871;DHT22;53780;44.998;9.926;2023-02-04T16:00:32;16.54;49.90
66871;DHT22;53780;44.998;9.926;2023-02-04T16:03:36;16.47;49.93
66871;DHT22;53780;44.998;9.926;2023-02-04T16:06:39;16.42;50.21
66871;DHT22;53780;44.998;9.926;2023-02-04T16:09:43;16.33;50.15
66871;DHT22;53780;44.998;9.926;2023-02-04T16:12:47;16.25;50.55
66871;DHT22;53780;44.998;9.926;2023-02-04T16:15:52;16.13;51.30
66871;DHT22;53780;44.998;9.926;2023-02-04T16:18:56;16.02;51.61
66871;DHT22;53780;44.998;9.926;2023-02-04T16:22:00;15.94;52.04
66871;DHT22;53780;44.998;9.926;2023-02-04T16:25:04;15.79;52.21
66871;DHT22;53780;44.998;9.926;2023-02-04T16:28:09;15.74;52.28
66871;DHT22;53780;44.998;9.926;2023-02-04T16:31:14;15.67;52.69
66871;DHT22;53780;44.998;9.926;2023-02-04T16:34:18;15.58;53.20
66871;DHT22;53780;44.998;9.926;2023-02-04T16:37:22;15.50;53.80
66871;DHT22;53780;44.998;9.926;2023-02-04T16:40:26;15.37;54.09
66871;DHT22;53780;44.998;9.926;2023-02-04T16:43:30;15.23;54.61
66871;DHT22;53780;44.998;9.926;2023-02-04T16:46:34;15.09;55.11
66871;DHT22;53780;44.998;9.926;2023-02-04T16:49:38;14.98;56.80
66871;DHT22;53780;44.998;9.926;2023-02-04T16:52:42;14.95;57.15
66871;DHT22;53780;44.998;9.926;2023-02-04T16:55:46;14.84;58.38
66871;DHT22;53780;44.998;9.926;2023-02-04T16:58:50;14.65;59.76
66871;DHT22;53780;44.998;9.926;2023-02-04T17:01:55;14.56;61.12
66871;DHT22;53780;44.998;9.926;2023-02-04T17:05:03;14.54;62.09
66871;DHT22;53780;44.998;9.926;2023-02-04T17:08:08;14.31;62.95
66871;DHT22;53780;44.998;9.926;2023-02-04T17:11:12;14.33;63.26
66871;DHT22;53780;44.998;9.926;2023-02-04T17:14:34;14.05;63.85
66871;DHT22;53780;44.998;9.926;2023-02-04T17:17:38;13.93;64.25
66871;DHT22;53780;44.998;9.926;2023-02-04T17:20:41;13.79;64.34
66871;DHT22;53780;44.998;9.926;2023-02-04T17:23:45;13.48;65.36
66871;DHT22;53780;44.998;9.926;2023-02-04T17:26:50;13.44;64.94
66871;DHT22;53780;44.998;9.926;2023-02-04T17:29:54;13.20;65.00
66871;DHT22;53780;44.998;9.926;2023-02-04T17:32:57;12.89;66.39
66871;DHT22;53780;44.998;9.926;2023-02-04T17:36:02;12.63;67.62
66871;DHT22;53780;44.998;9.926;2023-02-04T17:39:07;12.52;68.04
66871;DHT22;53780;44.998;9.926;2023-02-04T17:42:11;12.20;68.85
66871;DHT22;53780;44.998;9.926;2023-02-04T17:45:15;12.04;68.78
66871;DHT22;53780;44.998;9.926;2023-02-04T17:48:19;11.94;68.83
66871;DHT22;53780;44.998;9.926;2023-02-04T17:51:23;11.96;68.66
66871;DHT22;53780;44.998;9.926;2023-02-04T17:54:27;11.85;69.02
66871;DHT22;53780;44.998;9.926;2023-02-04T17:57:31;11.89;68.88
66871;DHT22;53780;44.998;9.926;2023-02-04T18:00:35;11.69;69.26
66871;DHT22;53780;44.998;9.926;2023-02-04T18:03:39;11.52;69.66
66871;DHT22;53780;44.998;9.926;2023-02-04T18:06:45;11.51;69.19
66871;DHT22;53780;44.998;9.926;2023-02-04T18:09:49;11.39;69.28
66871;DHT22;53780;44.998;9.926;2023-02-04T18:12:54;11.34;68.87
66871;DHT22;53780;44.998;9.926;2023-02-04T18:16:10;11.07;69.92
66871;DHT22;53780;44.998;9.926;2023-02-04T18:22:31;10.97;70.29
66871;DHT22;53780;44.998;9.926;2023-02-04T18:25:35;10.70;71.41
66871;DHT22;53780;44.998;9.926;2023-02-04T18:28:42;10.66;71.44
66871;DHT22;53780;44.998;9.926;2023-02-04T18:31:51;10.62;71.66
66871;DHT22;53780;44.998;9.926;2023-02-04T18:34:56;10.49;71.89
66871;DHT22;53780;44.998;9.926;2023-02-04T18:38:26;10.46;71.99
66871;DHT22;53780;44.998;9.926;2023-02-04T18:41:31;10.49;71.49
66871;DHT22;53780;44.998;9.926;2023-02-04T18:44:36;10.42;71.50
66871;DHT22;53780;44.998;9.926;2023-02-04T18:47:41;10.39;71.48
66871;DHT22;53780;44.998;9.926;2023-02-04T18:50:49;10.17;72.03
66871;DHT22;53780;44.998;9.926;2023-02-04T18:53:58;10.14;71.88
66871;DHT22;53780;44.998;9.926;2023-02-04T19:00:27;10.19;71.62
66871;DHT22;53780;44.998;9.926;2023-02-04T19:03:42;10.01;72.01
66871;DHT22;53780;44.998;9.926;2023-02-04T19:06:47;9.74;72.64
66871;DHT22;53780;44.998;9.926;2023-02-04T19:09:55;9.69;72.68
66871;DHT22;53780;44.998;9.926;2023-02-04T19:13:17;9.70;72.94
66871;DHT22;53780;44.998;9.926;2023-02-04T19:16:24;9.67;73.22
66871;DHT22;53780;44.998;9.926;2023-02-04T19:22:46;9.40;73.98
66871;DHT22;53780;44.998;9.926;2023-02-04T19:25:51;9.35;74.64
66871;DHT22;53780;44.998;9.926;2023-02-04T19:28:55;9.32;74.65
66871;DHT22;53780;44.998;9.926;2023-02-04T19:32:25;9.35;74.57
66871;DHT22;53780;44.998;9.926;2023-02-04T19:35:40;9.26;75.08
66871;DHT22;53780;44.998;9.926;2023-02-04T19:38:46;9.08;75.84
66871;DHT22;53780;44.998;9.926;2023-02-04T19:41:51;9.11;75.90
66871;DHT22;53780;44.998;9.926;2023-02-04T19:44:57;9.05;76.35
66871;DHT22;53780;44.998;9.926;2023-02-04T19:51:27;8.96;77.27
66871;DHT22;53780;44.998;9.926;2023-02-04T19:54:37;8.91;77.29
66871;DHT22;53780;44.998;9.926;2023-02-04T19:57:47;8.96;77.65
66871;DHT22;53780;44.998;9.926;2023-02-04T20:00:58;8.88;78.03
66871;DHT22;53780;44.998;9.926;2023-02-04T20:04:05;8.87;77.96
66871;DHT22;53780;44.998;9.926;2023-02-04T20:07:20;8.70;78.07